sensor_id;sensor_type;location;lat;lon;timestamp;P1;durP1;ratioP1;P2;durP2;ratioP2
12177;SDS011;6152;48.728;9.256;2023-05-07T00:00:53;2.33;;;2.13;;
12177;SDS011;6152;48.728;9.256;2023-05-07T00:03:20;3.13;;;2.17;;
12177;SDS011;6152;48.728;9.256;2023-05-07T00:05:46;1.90;;;1.80;;
12177;SDS011;6152;48.728;9.256;2023-05-07T00:08:13;2.03;;;1.92;;
12177;SDS011;6152;48.728;9.256;2023-05-07T00:10:39;3.50;;;2.50;;
12177;SDS011;6152;48.728;9.256;2023-05-07T00:13:05;1.77;;;1.58;;
12177;SDS011;6152;48.728;9.256;2023-05-07T00:15:31;4.32;;;1.70;;
12177;SDS011;6152;48.728;9.256;2023-05-07T00:17:57;2.78;;;1.75;;
12177;SDS011;6152;48.728;9.256;2023-05-07T00:20:24;2.42;;;1.70;;
12177;SDS011;6152;48.728;9.256;2023-05-07T00:22:50;1.63;;;1.52;;
12177;SDS011;6152;48.728;9.256;2023-05-07T00:25:16;1.50;;;1.40;;
12177;SDS011;6152;48.728;9.256;2023-05-07T00:27:44;3.10;;;1.60;;
12177;SDS011;6152;48.728;9.256;2023-05-07T00:30:10;1.77;;;1.48;;
12177;SDS011;6152;48.728;9.256;2023-05-07T00:32:37;1.80;;;1.70;;
12177;SDS011;6152;48.728;9.256;2023-05-07T00:35:04;1.30;;;1.20;;
12177;SDS011;6152;48.728;9.256;2023-05-07T00:37:31;1.73;;;1.63;;
12177;SDS011;6152;48.728;9.256;2023-05-07T00:39:57;1.73;;;1.63;;
12177;SDS011;6152;48.728;9.256;2023-05-07T00:42:23;1.65;;;1.50;;
12177;SDS011;6152;48.728;9.256;2023-05-07T00:44:49;3.30;;;1.70;;
12177;SDS011;6152;48.728;9.256;2023-05-07T00:47:16;2.47;;;2.28;;
12177;SDS011;6152;48.728;9.256;2023-05-07T00:49:43;3.88;;;1.60;;
12177;SDS011;6152;48.728;9.256;2023-05-07T00:52:14;1.75;;;1.65;;
12177;SDS011;6152;48.728;9.256;2023-05-07T00:54:42;2.42;;;1.88;;
12177;SDS011;6152;48.728;9.256;2023-05-07T00:57:11;1.83;;;1.73;;
12177;SDS011;6152;48.728;9.256;2023-05-07T00:59:38;2.72;;;1.60;;
12177;SDS011;6152;48.728;9.256;2023-05-07T01:02:05;2.05;;;1.75;;
12177;SDS011;6152;48.728;9.256;2023-05-07T01:04:31;2.60;;;2.10;;
12177;SDS011;6152;48.728;9.256;2023-05-07T01:06:58;3.28;;;1.75;;
12177;SDS011;6152;48.728;9.256;2023-05-07T01:09:26;2.38;;;1.75;;
12177;SDS011;6152;48.728;9.256;2023-05-07T01:11:53;1.90;;;1.70;;
12177;SDS011;6152;48.728;9.256;2023-05-07T01:14:22;2.17;;;1.92;;
12177;SDS011;6152;48.728;9.256;2023-05-07T01:16:49;4.22;;;2.10;;
12177;SDS011;6152;48.728;9.256;2023-05-07T01:19:18;2.28;;;2.00;;
12177;SDS011;6152;48.728;9.256;2023-05-07T01:21:46;1.88;;;1.70;;
12177;SDS011;6152;48.728;9.256;2023-05-07T01:24:14;2.45;;;1.90;;
12177;SDS011;6152;48.728;9.256;2023-05-07T01:26:41;3.70;;;2.13;;
12177;SDS011;6152;48.728;9.256;2023-05-07T01:29:08;2.05;;;1.88;;
12177;SDS011;6152;48.728;9.256;2023-05-07T01:31:35;3.53;;;2.15;;
12177;SDS011;6152;48.728;9.256;2023-05-07T01:34:02;2.28;;;2.08;;
12177;SDS011;6152;48.728;9.256;2023-05-07T01:36:31;2.20;;;1.65;;
12177;SDS011;6152;48.728;9.256;2023-05-07T01:38:57;1.88;;;1.75;;
12177;SDS011;6152;48.728;9.256;2023-05-07T01:41:24;2.58;;;2.25;;
12177;SDS011;6152;48.728;9.256;2023-05-07T01:43:51;4.65;;;2.10;;
12177;SDS011;6152;48.728;9.256;2023-05-07T01:46:18;2.40;;;2.20;;
12177;SDS011;6152;48.728;9.256;2023-05-07T01:48:45;1.83;;;1.73;;
12177;SDS011;6152;48.728;9.256;2023-05-07T01:51:11;2.45;;;1.90;;
12177;SDS011;6152;48.728;9.256;2023-05-07T01:53:38;1.73;;;1.52;;
12177;SDS011;6152;48.728;9.256;2023-05-07T01:56:05;1.90;;;1.80;;
12177;SDS011;6152;48.728;9.256;2023-05-07T01:58:32;2.08;;;1.90;;
12177;SDS011;6152;48.728;9.256;2023-05-07T02:00:59;3.92;;;1.70;;
12177;SDS011;6152;48.728;9.256;2023-05-07T02:03:25;2.33;;;2.10;;
12177;SDS011;6152;48.728;9.256;2023-05-07T02:05:51;2.25;;;2.08;;
12177;SDS011;6152;48.728;9.256;2023-05-07T02:08:17;2.90;;;2.42;;
12177;SDS011;6152;48.728;9.256;2023-05-07T02:10:43;3.00;;;2.30;;
12177;SDS011;6152;48.728;9.256;2023-05-07T02:13:09;2.05;;;1.90;;
12177;SDS011;6152;48.728;9.256;2023-05-07T02:15:35;1.85;;;1.75;;
12177;SDS011;6152;48.728;9.256;2023-05-07T02:18:02;3.28;;;2.08;;
12177;SDS011;6152;48.728;9.256;2023-05-07T02:20:31;2.13;;;1.95;;
12177;SDS011;6152;48.728;9.256;2023-05-07T02:22:57;2.35;;;2.00;;
12177;SDS011;6152;48.728;9.256;2023-05-07T02:25:23;3.03;;;2.20;;
12177;SDS011;6152;48.728;9.256;2023-05-07T02:27:49;3.05;;;2.30;;
12177;SDS011;6152;48.728;9.256;2023-05-07T02:30:16;2.58;;;1.95;;
12177;SDS011;6152;48.728;9.256;2023-05-07T02:32:42;3.15;;;2.15;;
12177;SDS011;6152;48.728;9.256;2023-05-07T02:35:08;2.25;;;1.98;;
12177;SDS011;6152;48.728;9.256;2023-05-07T02:37:34;2.33;;;1.90;;
12177;SDS011;6152;48.728;9.256;2023-05-07T02:40:00;2.33;;;2.00;;
12177;SDS011;6152;48.728;9.256;2023-05-07T02:42:28;1.92;;;1.73;;
12177;SDS011;6152;48.728;9.256;2023-05-07T02:44:54;2.10;;;1.92;;
12177;SDS011;6152;48.728;9.256;2023-05-07T02:47:20;1.98;;;1.85;;
12177;SDS011;6152;48.728;9.256;2023-05-07T02:49:46;2.22;;;2.13;;
12177;SDS011;6152;48.728;9.256;2023-05-07T02:52:12;2.40;;;2.17;;
12177;SDS011;6152;48.728;9.256;2023-05-07T02:54:38;3.00;;;2.53;;
12177;SDS011;6152;48.728;9.256;2023-05-07T02:57:04;2.53;;;2.00;;
12177;SDS011;6152;48.728;9.256;2023-05-07T02:59:30;3.50;;;2.35;;
12177;SDS011;6152;48.728;9.256;2023-05-07T03:01:56;2.28;;;2.08;;
12177;SDS011;6152;48.728;9.256;2023-05-07T03:04:22;2.28;;;2.08;;
12177;SDS011;6152;48.728;9.256;2023-05-07T03:06:48;2.80;;;2.40;;
12177;SDS011;6152;48.728;9.256;2023-05-07T03:09:15;3.67;;;2.38;;
12177;SDS011;6152;48.728;9.256;2023-05-07T03:11:41;3.47;;;2.55;;
12177;SDS011;6152;48.728;9.256;2023-05-07T03:14:07;4.40;;;2.50;;
12177;SDS011;6152;48.728;9.256;2023-05-07T03:16:33;3.25;;;2.30;;
12177;SDS011;6152;48.728;9.256;2023-05-07T03:18:59;2.50;;;2.30;;
12177;SDS011;6152;48.728;9.256;2023-05-07T03:21:26;3.28;;;2.50;;
12177;SDS011;6152;48.728;9.256;2023-05-07T03:23:52;4.00;;;2.42;;
12177;SDS011;6152;48.728;9.256;2023-05-07T03:26:18;2.90;;;2.50;;
12177;SDS011;6152;48.728;9.256;2023-05-07T03:28:44;2.25;;;2.05;;
12177;SDS011;6152;48.728;9.256;2023-05-07T03:31:11;3.08;;;2.10;;
12177;SDS011;6152;48.728;9.256;2023-05-07T03:33:38;2.78;;;2.40;;
12177;SDS011;6152;48.728;9.256;2023-05-07T03:36:15;3.05;;;2.70;;
12177;SDS011;6152;48.728;9.256;2023-05-07T03:38:41;4.07;;;2.45;;
12177;SDS011;6152;48.728;9.256;2023-05-07T03:41:07;2.40;;;2.20;;
12177;SDS011;6152;48.728;9.256;2023-05-07T03:43:33;2.45;;;2.25;;
12177;SDS011;6152;48.728;9.256;2023-05-07T03:45:59;3.25;;;2.47;;
12177;SDS011;6152;48.728;9.256;2023-05-07T03:48:25;3.38;;;2.20;;
12177;SDS011;6152;48.728;9.256;2023-05-07T03:50:52;3.13;;;2.83;;
12177;SDS011;6152;48.728;9.256;2023-05-07T03:53:18;3.10;;;2.72;;
12177;SDS011;6152;48.728;9.256;2023-05-07T03:55:44;3.33;;;2.20;;
12177;SDS011;6152;48.728;9.256;2023-05-07T03:58:10;2.83;;;2.58;;
12177;SDS011;6152;48.728;9.256;2023-05-07T04:00:36;3.05;;;2.00;;
12177;SDS011;6152;48.728;9.256;2023-05-07T04:03:04;3.20;;;2.67;;
12177;SDS011;6152;48.728;9.256;2023-05-07T04:05:30;2.20;;;2.10;;
12177;SDS011;6152;48.728;9.256;2023-05-07T04:08:00;2.85;;;2.55;;
12177;SDS011;6152;48.728;9.256;2023-05-07T04:10:27;2.65;;;2.00;;
12177;SDS011;6152;48.728;9.256;2023-05-07T04:12:54;2.15;;;2.00;;
12177;SDS011;6152;48.728;9.256;2023-05-07T04:15:20;4.35;;;2.70;;
12177;SDS011;6152;48.728;9.256;2023-05-07T04:17:46;1.98;;;1.80;;
12177;SDS011;6152;48.728;9.256;2023-05-07T04:20:14;3.35;;;2.75;;
12177;SDS011;6152;48.728;9.256;2023-05-07T04:22:41;3.72;;;2.20;;
12177;SDS011;6152;48.728;9.256;2023-05-07T04:25:08;3.72;;;2.22;;
12177;SDS011;6152;48.728;9.256;2023-05-07T04:27:35;2.42;;;2.22;;
12177;SDS011;6152;48.728;9.256;2023-05-07T04:30:01;4.88;;;2.90;;
12177;SDS011;6152;48.728;9.256;2023-05-07T04:32:28;2.30;;;2.10;;
12177;SDS011;6152;48.728;9.256;2023-05-07T04:34:55;2.38;;;2.17;;
12177;SDS011;6152;48.728;9.256;2023-05-07T04:37:21;2.90;;;2.60;;
12177;SDS011;6152;48.728;9.256;2023-05-07T04:39:48;3.35;;;2.85;;
12177;SDS011;6152;48.728;9.256;2023-05-07T04:42:14;3.10;;;2.35;;
12177;SDS011;6152;48.728;9.256;2023-05-07T04:44:41;4.10;;;2.90;;
12177;SDS011;6152;48.728;9.256;2023-05-07T04:47:11;4.65;;;2.50;;
12177;SDS011;6152;48.728;9.256;2023-05-07T04:49:40;3.38;;;2.67;;
12177;SDS011;6152;48.728;9.256;2023-05-07T04:52:06;4.85;;;3.13;;
12177;SDS011;6152;48.728;9.256;2023-05-07T04:54:32;3.58;;;3.28;;
12177;SDS011;6152;48.728;9.256;2023-05-07T04:56:58;3.70;;;2.88;;
12177;SDS011;6152;48.728;9.256;2023-05-07T04:59:24;3.83;;;3.05;;
12177;SDS011;6152;48.728;9.256;2023-05-07T05:01:50;2.78;;;2.58;;
12177;SDS011;6152;48.728;9.256;2023-05-07T05:04:16;3.25;;;2.95;;
12177;SDS011;6152;48.728;9.256;2023-05-07T05:06:43;3.30;;;3.00;;
12177;SDS011;6152;48.728;9.256;2023-05-07T05:09:09;3.15;;;2.88;;
12177;SDS011;6152;48.728;9.256;2023-05-07T05:11:36;2.85;;;2.65;;
12177;SDS011;6152;48.728;9.256;2023-05-07T05:14:02;3.50;;;3.20;;
12177;SDS011;6152;48.728;9.256;2023-05-07T05:16:28;3.55;;;3.25;;
12177;SDS011;6152;48.728;9.256;2023-05-07T05:18:54;2.85;;;2.60;;
12177;SDS011;6152;48.728;9.256;2023-05-07T05:21:20;3.13;;;2.88;;
12177;SDS011;6152;48.728;9.256;2023-05-07T05:23:46;5.95;;;3.05;;
12177;SDS011;6152;48.728;9.256;2023-05-07T05:26:12;3.22;;;2.60;;
12177;SDS011;6152;48.728;9.256;2023-05-07T05:28:38;3.50;;;3.15;;
12177;SDS011;6152;48.728;9.256;2023-05-07T05:31:05;3.25;;;2.95;;
12177;SDS011;6152;48.728;9.256;2023-05-07T05:33:31;3.40;;;3.10;;
12177;SDS011;6152;48.728;9.256;2023-05-07T05:35:57;4.10;;;3.13;;
12177;SDS011;6152;48.728;9.256;2023-05-07T05:38:23;3.40;;;3.10;;
12177;SDS011;6152;48.728;9.256;2023-05-07T05:40:50;4.38;;;3.10;;
12177;SDS011;6152;48.728;9.256;2023-05-07T05:43:16;4.40;;;3.13;;
12177;SDS011;6152;48.728;9.256;2023-05-07T05:45:42;3.40;;;3.10;;
12177;SDS011;6152;48.728;9.256;2023-05-07T05:48:09;4.63;;;3.50;;
12177;SDS011;6152;48.728;9.256;2023-05-07T05:50:35;3.80;;;3.50;;
12177;SDS011;6152;48.728;9.256;2023-05-07T05:53:01;4.93;;;3.10;;
12177;SDS011;6152;48.728;9.256;2023-05-07T05:55:27;3.38;;;2.70;;
12177;SDS011;6152;48.728;9.256;2023-05-07T05:57:53;3.25;;;2.50;;
12177;SDS011;6152;48.728;9.256;2023-05-07T06:00:20;4.03;;;2.60;;
12177;SDS011;6152;48.728;9.256;2023-05-07T06:02:49;3.65;;;2.85;;
12177;SDS011;6152;48.728;9.256;2023-05-07T06:05:15;2.65;;;2.45;;
12177;SDS011;6152;48.728;9.256;2023-05-07T06:07:41;2.75;;;2.55;;
12177;SDS011;6152;48.728;9.256;2023-05-07T06:10:07;3.03;;;2.72;;
12177;SDS011;6152;48.728;9.256;2023-05-07T06:12:33;2.85;;;2.65;;
12177;SDS011;6152;48.728;9.256;2023-05-07T06:15:00;4.20;;;3.00;;
12177;SDS011;6152;48.728;9.256;2023-05-07T06:17:26;2.55;;;2.42;;
12177;SDS011;6152;48.728;9.256;2023-05-07T06:19:52;3.30;;;2.80;;
12177;SDS011;6152;48.728;9.256;2023-05-07T06:22:18;3.70;;;2.65;;
12177;SDS011;6152;48.728;9.256;2023-05-07T06:24:44;3.70;;;2.72;;
12177;SDS011;6152;48.728;9.256;2023-05-07T06:27:11;3.40;;;3.00;;
12177;SDS011;6152;48.728;9.256;2023-05-07T06:29:37;3.05;;;2.85;;
12177;SDS011;6152;48.728;9.256;2023-05-07T06:32:09;3.13;;;2.70;;
12177;SDS011;6152;48.728;9.256;2023-05-07T06:34:37;3.88;;;2.58;;
12177;SDS011;6152;48.728;9.256;2023-05-07T06:37:04;4.63;;;2.45;;
12177;SDS011;6152;48.728;9.256;2023-05-07T06:39:31;2.83;;;2.53;;
12177;SDS011;6152;48.728;9.256;2023-05-07T06:41:58;2.88;;;2.30;;
12177;SDS011;6152;48.728;9.256;2023-05-07T06:44:25;4.10;;;2.60;;
12177;SDS011;6152;48.728;9.256;2023-05-07T06:46:51;4.05;;;2.85;;
12177;SDS011;6152;48.728;9.256;2023-05-07T06:49:17;2.85;;;2.55;;
12177;SDS011;6152;48.728;9.256;2023-05-07T06:51:43;2.88;;;2.67;;
12177;SDS011;6152;48.728;9.256;2023-05-07T06:54:09;3.30;;;2.60;;
12177;SDS011;6152;48.728;9.256;2023-05-07T06:56:35;3.92;;;2.80;;
12177;SDS011;6152;48.728;9.256;2023-05-07T06:59:02;2.75;;;2.50;;
12177;SDS011;6152;48.728;9.256;2023-05-07T07:01:28;2.88;;;2.63;;
12177;SDS011;6152;48.728;9.256;2023-05-07T07:03:54;3.85;;;2.97;;
12177;SDS011;6152;48.728;9.256;2023-05-07T07:06:21;3.75;;;2.83;;
12177;SDS011;6152;48.728;9.256;2023-05-07T07:08:47;3.05;;;2.85;;
12177;SDS011;6152;48.728;9.256;2023-05-07T07:11:13;3.30;;;3.00;;
12177;SDS011;6152;48.728;9.256;2023-05-07T07:13:40;3.58;;;2.90;;
12177;SDS011;6152;48.728;9.256;2023-05-07T07:16:07;2.88;;;2.65;;
12177;SDS011;6152;48.728;9.256;2023-05-07T07:18:34;3.35;;;3.05;;
12177;SDS011;6152;48.728;9.256;2023-05-07T07:21:00;4.15;;;2.85;;
12177;SDS011;6152;48.728;9.256;2023-05-07T07:23:26;4.18;;;3.13;;
12177;SDS011;6152;48.728;9.256;2023-05-07T07:25:53;3.10;;;2.88;;
12177;SDS011;6152;48.728;9.256;2023-05-07T07:28:20;3.40;;;3.13;;
12177;SDS011;6152;48.728;9.256;2023-05-07T07:30:46;5.10;;;3.25;;
12177;SDS011;6152;48.728;9.256;2023-05-07T07:33:13;4.45;;;3.10;;
12177;SDS011;6152;48.728;9.256;2023-05-07T07:35:39;4.05;;;2.80;;
12177;SDS011;6152;48.728;9.256;2023-05-07T07:38:05;3.55;;;3.25;;
12177;SDS011;6152;48.728;9.256;2023-05-07T07:40:31;3.30;;;3.00;;
12177;SDS011;6152;48.728;9.256;2023-05-07T07:42:59;3.58;;;3.00;;
12177;SDS011;6152;48.728;9.256;2023-05-07T07:45:26;3.17;;;2.83;;
12177;SDS011;6152;48.728;9.256;2023-05-07T07:47:52;2.97;;;2.78;;
12177;SDS011;6152;48.728;9.256;2023-05-07T07:50:18;3.75;;;3.17;;
12177;SDS011;6152;48.728;9.256;2023-05-07T07:52:44;3.65;;;3.30;;
12177;SDS011;6152;48.728;9.256;2023-05-07T07:55:11;3.65;;;3.00;;
12177;SDS011;6152;48.728;9.256;2023-05-07T07:57:37;2.90;;;2.60;;
12177;SDS011;6152;48.728;9.256;2023-05-07T08:00:03;3.28;;;2.97;;
12177;SDS011;6152;48.728;9.256;2023-05-07T08:02:31;3.25;;;2.75;;
12177;SDS011;6152;48.728;9.256;2023-05-07T08:04:57;3.55;;;2.58;;
12177;SDS011;6152;48.728;9.256;2023-05-07T08:07:23;4.07;;;3.00;;
12177;SDS011;6152;48.728;9.256;2023-05-07T08:09:49;3.30;;;3.00;;
12177;SDS011;6152;48.728;9.256;2023-05-07T08:12:16;3.60;;;3.10;;
12177;SDS011;6152;48.728;9.256;2023-05-07T08:14:42;3.08;;;2.40;;
12177;SDS011;6152;48.728;9.256;2023-05-07T08:17:08;3.55;;;3.28;;
12177;SDS011;6152;48.728;9.256;2023-05-07T08:19:35;3.75;;;2.45;;
12177;SDS011;6152;48.728;9.256;2023-05-07T08:22:02;2.30;;;2.20;;
12177;SDS011;6152;48.728;9.256;2023-05-07T08:24:29;3.80;;;2.60;;
12177;SDS011;6152;48.728;9.256;2023-05-07T08:26:55;3.40;;;2.80;;
12177;SDS011;6152;48.728;9.256;2023-05-07T08:29:21;3.25;;;2.95;;
12177;SDS011;6152;48.728;9.256;2023-05-07T08:31:47;3.28;;;2.85;;
12177;SDS011;6152;48.728;9.256;2023-05-07T08:34:13;2.90;;;2.60;;
12177;SDS011;6152;48.728;9.256;2023-05-07T08:36:40;3.15;;;2.47;;
12177;SDS011;6152;48.728;9.256;2023-05-07T08:39:06;3.05;;;2.85;;
12177;SDS011;6152;48.728;9.256;2023-05-07T08:41:32;2.55;;;2.40;;
12177;SDS011;6152;48.728;9.256;2023-05-07T08:43:59;3.58;;;2.45;;
12177;SDS011;6152;48.728;9.256;2023-05-07T08:46:31;2.83;;;2.60;;
12177;SDS011;6152;48.728;9.256;2023-05-07T08:48:57;3.35;;;2.70;;
12177;SDS011;6152;48.728;9.256;2023-05-07T08:51:24;3.53;;;2.63;;
12177;SDS011;6152;48.728;9.256;2023-05-07T08:53:50;2.85;;;2.28;;
12177;SDS011;6152;48.728;9.256;2023-05-07T08:56:16;2.75;;;1.90;;
12177;SDS011;6152;48.728;9.256;2023-05-07T08:58:45;2.30;;;2.03;;
12177;SDS011;6152;48.728;9.256;2023-05-07T09:01:14;2.40;;;2.30;;
12177;SDS011;6152;48.728;9.256;2023-05-07T09:03:41;2.10;;;2.00;;
12177;SDS011;6152;48.728;9.256;2023-05-07T09:06:10;2.42;;;2.22;;
12177;SDS011;6152;48.728;9.256;2023-05-07T09:08:36;2.20;;;2.00;;
12177;SDS011;6152;48.728;9.256;2023-05-07T09:11:03;2.25;;;1.80;;
12177;SDS011;6152;48.728;9.256;2023-05-07T09:13:29;2.20;;;2.00;;
12177;SDS011;6152;48.728;9.256;2023-05-07T09:15:59;1.65;;;1.55;;
12177;SDS011;6152;48.728;9.256;2023-05-07T09:18:40;2.35;;;1.63;;
12177;SDS011;6152;48.728;9.256;2023-05-07T09:21:09;1.77;;;1.65;;
12177;SDS011;6152;48.728;9.256;2023-05-07T09:23:36;1.77;;;1.67;;
12177;SDS011;6152;48.728;9.256;2023-05-07T09:26:03;1.88;;;1.77;;
12177;SDS011;6152;48.728;9.256;2023-05-07T09:28:32;1.88;;;1.70;;
12177;SDS011;6152;48.728;9.256;2023-05-07T09:30:58;1.75;;;1.65;;
12177;SDS011;6152;48.728;9.256;2023-05-07T09:33:26;2.80;;;1.80;;
12177;SDS011;6152;48.728;9.256;2023-05-07T09:35:53;3.03;;;1.70;;
12177;SDS011;6152;48.728;9.256;2023-05-07T09:38:19;1.52;;;1.40;;
12177;SDS011;6152;48.728;9.256;2023-05-07T09:40:47;1.30;;;1.30;;
12177;SDS011;6152;48.728;9.256;2023-05-07T09:43:26;1.98;;;1.80;;
12177;SDS011;6152;48.728;9.256;2023-05-07T09:45:56;2.90;;;1.58;;
12177;SDS011;6152;48.728;9.256;2023-05-07T09:48:24;1.60;;;1.50;;
12177;SDS011;6152;48.728;9.256;2023-05-07T09:50:52;1.92;;;1.38;;
12177;SDS011;6152;48.728;9.256;2023-05-07T09:53:24;1.80;;;1.48;;
12177;SDS011;6152;48.728;9.256;2023-05-07T09:55:51;2.17;;;1.40;;
12177;SDS011;6152;48.728;9.256;2023-05-07T09:58:19;1.50;;;1.38;;
12177;SDS011;6152;48.728;9.256;2023-05-07T10:00:47;1.88;;;1.30;;
12177;SDS011;6152;48.728;9.256;2023-05-07T10:03:15;1.70;;;1.60;;
12177;SDS011;6152;48.728;9.256;2023-05-07T10:05:43;1.55;;;1.50;;
12177;SDS011;6152;48.728;9.256;2023-05-07T10:08:11;1.40;;;1.30;;
12177;SDS011;6152;48.728;9.256;2023-05-07T10:10:37;1.20;;;1.20;;
12177;SDS011;6152;48.728;9.256;2023-05-07T10:13:04;1.65;;;1.38;;
12177;SDS011;6152;48.728;9.256;2023-05-07T10:15:35;1.50;;;1.45;;
12177;SDS011;6152;48.728;9.256;2023-05-07T10:18:01;2.90;;;1.48;;
12177;SDS011;6152;48.728;9.256;2023-05-07T10:20:31;1.52;;;1.42;;
12177;SDS011;6152;48.728;9.256;2023-05-07T10:23:01;3.85;;;1.55;;
12177;SDS011;6152;48.728;9.256;2023-05-07T10:25:31;1.40;;;1.40;;
12177;SDS011;6152;48.728;9.256;2023-05-07T10:28:01;2.35;;;1.50;;
12177;SDS011;6152;48.728;9.256;2023-05-07T10:30:38;1.38;;;1.30;;
12177;SDS011;6152;48.728;9.256;2023-05-07T10:33:26;1.42;;;1.33;;
12177;SDS011;6152;48.728;9.256;2023-05-07T10:35:57;1.23;;;1.13;;
12177;SDS011;6152;48.728;9.256;2023-05-07T10:38:25;1.20;;;1.20;;
12177;SDS011;6152;48.728;9.256;2023-05-07T10:40:53;1.40;;;1.30;;
12177;SDS011;6152;48.728;9.256;2023-05-07T10:43:19;2.15;;;1.50;;
12177;SDS011;6152;48.728;9.256;2023-05-07T10:51:33;1.73;;;1.63;;
12177;SDS011;6152;48.728;9.256;2023-05-07T10:56:39;1.77;;;1.40;;
12177;SDS011;6152;48.728;9.256;2023-05-07T10:59:29;1.40;;;1.30;;
12177;SDS011;6152;48.728;9.256;2023-05-07T11:01:57;2.10;;;1.20;;
12177;SDS011;6152;48.728;9.256;2023-05-07T11:04:27;2.05;;;1.38;;
12177;SDS011;6152;48.728;9.256;2023-05-07T11:10:11;1.20;;;1.10;;
12177;SDS011;6152;48.728;9.256;2023-05-07T11:15:06;1.50;;;1.40;;
12177;SDS011;6152;48.728;9.256;2023-05-07T11:17:34;2.78;;;1.63;;
12177;SDS011;6152;48.728;9.256;2023-05-07T11:20:17;1.67;;;1.58;;
12177;SDS011;6152;48.728;9.256;2023-05-07T11:22:43;1.55;;;1.40;;
12177;SDS011;6152;48.728;9.256;2023-05-07T11:25:09;3.80;;;1.30;;
12177;SDS011;6152;48.728;9.256;2023-05-07T11:27:42;2.05;;;1.50;;
12177;SDS011;6152;48.728;9.256;2023-05-07T11:30:09;1.25;;;1.20;;
12177;SDS011;6152;48.728;9.256;2023-05-07T11:32:36;2.85;;;1.35;;
12177;SDS011;6152;48.728;9.256;2023-05-07T11:35:02;1.40;;;1.35;;
12177;SDS011;6152;48.728;9.256;2023-05-07T11:37:29;1.38;;;1.27;;
12177;SDS011;6152;48.728;9.256;2023-05-07T11:40:02;2.65;;;1.23;;
12177;SDS011;6152;48.728;9.256;2023-05-07T11:42:33;1.40;;;1.30;;
12177;SDS011;6152;48.728;9.256;2023-05-07T11:45:00;1.02;;;0.82;;
12177;SDS011;6152;48.728;9.256;2023-05-07T11:47:26;1.77;;;1.27;;
12177;SDS011;6152;48.728;9.256;2023-05-07T11:49:56;0.93;;;0.93;;
12177;SDS011;6152;48.728;9.256;2023-05-07T11:52:26;1.17;;;1.15;;
12177;SDS011;6152;48.728;9.256;2023-05-07T11:54:54;2.85;;;1.20;;
12177;SDS011;6152;48.728;9.256;2023-05-07T11:57:22;1.10;;;1.10;;
12177;SDS011;6152;48.728;9.256;2023-05-07T11:59:52;1.60;;;1.17;;
12177;SDS011;6152;48.728;9.256;2023-05-07T12:02:22;1.23;;;1.13;;
12177;SDS011;6152;48.728;9.256;2023-05-07T12:04:50;1.52;;;1.42;;
12177;SDS011;6152;48.728;9.256;2023-05-07T12:07:16;2.20;;;1.20;;
12177;SDS011;6152;48.728;9.256;2023-05-07T12:09:43;1.40;;;1.30;;
12177;SDS011;6152;48.728;9.256;2023-05-07T12:12:10;1.75;;;1.30;;
12177;SDS011;6152;48.728;9.256;2023-05-07T12:14:40;1.27;;;1.27;;
12177;SDS011;6152;48.728;9.256;2023-05-07T12:17:08;3.25;;;1.45;;
12177;SDS011;6152;48.728;9.256;2023-05-07T12:19:35;2.00;;;1.15;;
12177;SDS011;6152;48.728;9.256;2023-05-07T12:22:03;1.50;;;1.17;;
12177;SDS011;6152;48.728;9.256;2023-05-07T12:24:45;1.10;;;1.10;;
12177;SDS011;6152;48.728;9.256;2023-05-07T12:27:21;1.17;;;1.10;;
12177;SDS011;6152;48.728;9.256;2023-05-07T12:29:48;1.35;;;1.10;;
12177;SDS011;6152;48.728;9.256;2023-05-07T12:32:16;1.30;;;1.20;;
12177;SDS011;6152;48.728;9.256;2023-05-07T12:34:43;1.60;;;1.50;;
12177;SDS011;6152;48.728;9.256;2023-05-07T12:37:10;2.60;;;1.50;;
12177;SDS011;6152;48.728;9.256;2023-05-07T12:39:49;1.60;;;1.50;;
12177;SDS011;6152;48.728;9.256;2023-05-07T12:42:32;2.35;;;1.20;;
12177;SDS011;6152;48.728;9.256;2023-05-07T12:47:44;1.13;;;1.13;;
12177;SDS011;6152;48.728;9.256;2023-05-07T12:50:11;1.83;;;1.30;;
12177;SDS011;6152;48.728;9.256;2023-05-07T12:52:39;1.40;;;1.30;;
12177;SDS011;6152;48.728;9.256;2023-05-07T12:55:08;1.70;;;1.48;;
12177;SDS011;6152;48.728;9.256;2023-05-07T12:57:42;2.28;;;1.90;;
12177;SDS011;6152;48.728;9.256;2023-05-07T13:00:13;1.60;;;1.02;;
12177;SDS011;6152;48.728;9.256;2023-05-07T13:02:40;1.85;;;1.10;;
12177;SDS011;6152;48.728;9.256;2023-05-07T13:05:09;0.82;;;0.82;;
12177;SDS011;6152;48.728;9.256;2023-05-07T13:07:36;1.20;;;0.90;;
12177;SDS011;6152;48.728;9.256;2023-05-07T13:10:02;2.35;;;1.05;;
12177;SDS011;6152;48.728;9.256;2023-05-07T13:12:29;4.13;;;1.60;;
12177;SDS011;6152;48.728;9.256;2023-05-07T13:14:55;1.80;;;1.30;;
12177;SDS011;6152;48.728;9.256;2023-05-07T13:17:21;1.65;;;1.02;;
12177;SDS011;6152;48.728;9.256;2023-05-07T13:19:47;2.00;;;1.00;;
12177;SDS011;6152;48.728;9.256;2023-05-07T13:22:13;2.08;;;1.30;;
12177;SDS011;6152;48.728;9.256;2023-05-07T13:24:39;2.08;;;1.38;;
12177;SDS011;6152;48.728;9.256;2023-05-07T13:27:07;3.28;;;1.15;;
12177;SDS011;6152;48.728;9.256;2023-05-07T13:29:34;1.60;;;1.20;;
12177;SDS011;6152;48.728;9.256;2023-05-07T13:32:00;1.50;;;1.30;;
12177;SDS011;6152;48.728;9.256;2023-05-07T13:34:27;3.35;;;1.20;;
12177;SDS011;6152;48.728;9.256;2023-05-07T13:36:53;2.38;;;1.17;;
12177;SDS011;6152;48.728;9.256;2023-05-07T13:39:20;1.58;;;1.20;;
12177;SDS011;6152;48.728;9.256;2023-05-07T13:41:46;1.48;;;0.98;;
12177;SDS011;6152;48.728;9.256;2023-05-07T13:44:12;1.88;;;0.90;;
12177;SDS011;6152;48.728;9.256;2023-05-07T13:46:38;1.52;;;1.00;;
12177;SDS011;6152;48.728;9.256;2023-05-07T13:49:04;0.85;;;0.85;;
12177;SDS011;6152;48.728;9.256;2023-05-07T13:51:31;1.25;;;0.73;;
12177;SDS011;6152;48.728;9.256;2023-05-07T13:53:57;1.65;;;0.60;;
12177;SDS011;6152;48.728;9.256;2023-05-07T13:56:23;1.88;;;0.60;;
12177;SDS011;6152;48.728;9.256;2023-05-07T13:58:49;1.20;;;0.50;;
12177;SDS011;6152;48.728;9.256;2023-05-07T14:01:15;2.63;;;0.70;;
12177;SDS011;6152;48.728;9.256;2023-05-07T14:03:42;2.22;;;1.00;;
12177;SDS011;6152;48.728;9.256;2023-05-07T14:06:08;2.33;;;0.93;;
12177;SDS011;6152;48.728;9.256;2023-05-07T14:08:34;4.15;;;1.40;;
12177;SDS011;6152;48.728;9.256;2023-05-07T14:11:00;1.40;;;1.30;;
12177;SDS011;6152;48.728;9.256;2023-05-07T14:13:26;4.43;;;1.75;;
12177;SDS011;6152;48.728;9.256;2023-05-07T14:15:52;1.88;;;1.60;;
12177;SDS011;6152;48.728;9.256;2023-05-07T14:18:18;1.67;;;1.58;;
12177;SDS011;6152;48.728;9.256;2023-05-07T14:20:45;3.38;;;1.98;;
12177;SDS011;6152;48.728;9.256;2023-05-07T14:23:12;4.00;;;1.98;;
12177;SDS011;6152;48.728;9.256;2023-05-07T14:25:39;1.73;;;1.60;;
12177;SDS011;6152;48.728;9.256;2023-05-07T14:28:05;1.90;;;1.58;;
12177;SDS011;6152;48.728;9.256;2023-05-07T14:30:31;4.50;;;2.75;;
12177;SDS011;6152;48.728;9.256;2023-05-07T14:32:57;3.78;;;2.88;;
12177;SDS011;6152;48.728;9.256;2023-05-07T14:35:23;2.75;;;2.53;;
12177;SDS011;6152;48.728;9.256;2023-05-07T14:37:49;2.95;;;2.65;;
12177;SDS011;6152;48.728;9.256;2023-05-07T14:40:15;4.72;;;2.70;;
12177;SDS011;6152;48.728;9.256;2023-05-07T14:42:41;4.28;;;2.80;;
12177;SDS011;6152;48.728;9.256;2023-05-07T14:45:08;6.28;;;2.38;;
12177;SDS011;6152;48.728;9.256;2023-05-07T14:47:34;2.83;;;2.38;;
12177;SDS011;6152;48.728;9.256;2023-05-07T14:50:00;4.45;;;2.13;;
12177;SDS011;6152;48.728;9.256;2023-05-07T14:52:26;2.55;;;2.30;;
12177;SDS011;6152;48.728;9.256;2023-05-07T14:54:52;3.58;;;2.42;;
12177;SDS011;6152;48.728;9.256;2023-05-07T14:57:19;2.58;;;1.95;;
12177;SDS011;6152;48.728;9.256;2023-05-07T14:59:45;3.50;;;2.25;;
12177;SDS011;6152;48.728;9.256;2023-05-07T15:02:12;3.88;;;2.00;;
12177;SDS011;6152;48.728;9.256;2023-05-07T15:04:38;5.05;;;2.35;;
12177;SDS011;6152;48.728;9.256;2023-05-07T15:07:10;2.17;;;1.92;;
12177;SDS011;6152;48.728;9.256;2023-05-07T15:09:42;3.05;;;1.38;;
12177;SDS011;6152;48.728;9.256;2023-05-07T15:12:09;1.90;;;1.63;;
12177;SDS011;6152;48.728;9.256;2023-05-07T15:14:36;3.22;;;1.80;;
12177;SDS011;6152;48.728;9.256;2023-05-07T15:17:05;1.95;;;1.85;;